Buffalo, NY (14221)

9:18 PM EST on December 10, 2016 (GMT -0500)
Northern Williamsville | | Change Station

Elev 593 ft 42.99 °N, 78.75 °W | Updated 7 minutes ago

Partly Cloudy
Partly Cloudy
23.2 °F
Feels Like 18 °F
N
4.0
Wind Variable Wind from West

Today
High -- | Low -- °F
--% Chance of Precip.
Yesterday
High -- | Low -- °F
Precip. -- in
Pressure 30.40 in
Visibility 10.0 miles
Clouds Few 5500 ft
Few 9000 ft
Windchill 18 °F
Dew Point 15 °F
Humidity 71%
Rainfall 0.00 in
Snow Depth Not available.
7:35 AM 4:40 PM
Waxing Gibbous, 88% visible
METAR KBUF 110154Z 27006KT 10SM FEW055 FEW090 M04/M11 A3037 RMK AO2 SLP294 T10441111
Pressure 30.40 in
Visibility 10.0 miles
Clouds Few 5500 ft
Few 9000 ft
Windchill 18 °F
Dew Point 15 °F
Humidity 71%
Rainfall 0.00 in
Snow Depth Not available.
7:35 AM 4:40 PM
Waxing Gibbous, 88% visible
METAR KBUF 110154Z 27006KT 10SM FEW055 FEW090 M04/M11 A3037 RMK AO2 SLP294 T10441111

10-Day Weather Forecast

Almanac

Astronomy

Dec. 10, 2016 Rise Set
Actual Time
Civil Twilight
Nautical Twilight
Astronomical Twilight
Moon
Length of Visible Light
Length of Day
Tomorrow will be .
, % of the Moon is Illuminated

Today's Extremes

State Highs State Lows

Community

WunderPhotos

Upload Photos

1,956,690 photos uploaded!

WunderBlog® & News

Nearby

Air Quality

  Air Quality AQ Index Pollutant
Not available.

Snow Depth

Station Depth Elevation

Earthquake Activity

City Distance Mag. Time & Date
Minimum magnitude displayed is 2.5.

Coastal Water Temperatures

Place Temperature

Stations

Nearby Weather Stations

Station Location Temp. Windchill Dew Point Humidity Wind Precip. Elev Updated Type
                   

Watches & Warnings

Lake Effect Snow Advisory
Issued: 2:49 PM EST Dec. 10, 2016 – National Weather Service

... Lake effect Snow Advisory remains in effect from 11 PM this
evening to 9 am EST Sunday...

* locations... northern Erie County. Greatest amounts close to
Lake Erie from South Buffalo into the southtowns.

* Timing... from late this evening through late Sunday morning.

* Accumulations... 3 to 6 inches overnight and early Sunday morning
in persistent snows.

* Winds... southwest 5 to 10 mph.

* Visibilities... as low as a quarter mile at times.

* Impacts... lake effect snow will produce accumulations of snow
on area roadways and poor visibilities at times... resulting in
hazardous travel conditions.

Precautionary/preparedness actions...

In lake effect snow the weather can vary from locally heavy snow
in narrow bands to clear skies just a few miles away. If you will
be traveling across the region be prepared for rapid changes in
Road and visibility conditions.

Report snow accumulation to the National Weather Service in
Buffalo by sending an email to bufstorm.Report@noaa.Gov... posting
to the NWS Buffalo facebook Page... or tweet... using the hashtag
bufwx



Hitchcock/church